sensor_id;sensor_type;location;lat;lon;timestamp;P1;durP1;ratioP1;P2;durP2;ratioP2
43807;SDS011;29438;50.664;10.098;2024-02-26T00:02:15;6.25;;;3.03;;
43807;SDS011;29438;50.664;10.098;2024-02-26T00:04:41;7.30;;;3.80;;
43807;SDS011;29438;50.664;10.098;2024-02-26T00:07:07;5.50;;;2.80;;
43807;SDS011;29438;50.664;10.098;2024-02-26T00:09:32;4.45;;;2.05;;
43807;SDS011;29438;50.664;10.098;2024-02-26T00:12:01;4.78;;;2.08;;
43807;SDS011;29438;50.664;10.098;2024-02-26T00:14:28;3.65;;;1.70;;
43807;SDS011;29438;50.664;10.098;2024-02-26T00:16:54;5.18;;;1.90;;
43807;SDS011;29438;50.664;10.098;2024-02-26T00:19:20;4.28;;;1.80;;
43807;SDS011;29438;50.664;10.098;2024-02-26T00:21:45;3.33;;;1.60;;
43807;SDS011;29438;50.664;10.098;2024-02-26T00:24:11;4.25;;;1.67;;
43807;SDS011;29438;50.664;10.098;2024-02-26T00:26:36;3.95;;;1.52;;
43807;SDS011;29438;50.664;10.098;2024-02-26T00:29:02;3.38;;;1.55;;
43807;SDS011;29438;50.664;10.098;2024-02-26T00:31:27;2.70;;;1.10;;
43807;SDS011;29438;50.664;10.098;2024-02-26T00:33:53;3.28;;;1.13;;
43807;SDS011;29438;50.664;10.098;2024-02-26T00:36:18;2.30;;;1.20;;
43807;SDS011;29438;50.664;10.098;2024-02-26T00:38:44;7.07;;;2.88;;
43807;SDS011;29438;50.664;10.098;2024-02-26T00:41:15;3.75;;;1.77;;
43807;SDS011;29438;50.664;10.098;2024-02-26T00:43:41;5.15;;;2.20;;
43807;SDS011;29438;50.664;10.098;2024-02-26T00:46:07;7.60;;;2.72;;
43807;SDS011;29438;50.664;10.098;2024-02-26T00:48:33;4.15;;;1.65;;
43807;SDS011;29438;50.664;10.098;2024-02-26T00:50:58;5.97;;;1.60;;
43807;SDS011;29438;50.664;10.098;2024-02-26T00:53:24;3.95;;;1.50;;
43807;SDS011;29438;50.664;10.098;2024-02-26T00:55:50;4.65;;;1.30;;
43807;SDS011;29438;50.664;10.098;2024-02-26T00:58:15;2.40;;;1.10;;
43807;SDS011;29438;50.664;10.098;2024-02-26T01:00:41;3.20;;;1.58;;
43807;SDS011;29438;50.664;10.098;2024-02-26T01:03:07;3.78;;;1.30;;
43807;SDS011;29438;50.664;10.098;2024-02-26T01:05:32;2.97;;;1.38;;
43807;SDS011;29438;50.664;10.098;2024-02-26T01:07:58;3.28;;;1.30;;
43807;SDS011;29438;50.664;10.098;2024-02-26T01:10:24;3.25;;;1.25;;
43807;SDS011;29438;50.664;10.098;2024-02-26T01:12:49;4.22;;;1.77;;
43807;SDS011;29438;50.664;10.098;2024-02-26T01:15:15;5.53;;;1.98;;
43807;SDS011;29438;50.664;10.098;2024-02-26T01:17:40;4.85;;;2.53;;
43807;SDS011;29438;50.664;10.098;2024-02-26T01:20:06;8.68;;;4.30;;
43807;SDS011;29438;50.664;10.098;2024-02-26T01:22:33;8.80;;;4.32;;
43807;SDS011;29438;50.664;10.098;2024-02-26T01:24:59;7.38;;;3.88;;
43807;SDS011;29438;50.664;10.098;2024-02-26T01:27:24;6.22;;;3.33;;
43807;SDS011;29438;50.664;10.098;2024-02-26T01:29:52;6.00;;;2.97;;
43807;SDS011;29438;50.664;10.098;2024-02-26T01:32:17;6.53;;;2.85;;
43807;SDS011;29438;50.664;10.098;2024-02-26T01:34:43;4.68;;;2.10;;
43807;SDS011;29438;50.664;10.098;2024-02-26T01:37:08;4.60;;;2.30;;
43807;SDS011;29438;50.664;10.098;2024-02-26T01:39:34;4.03;;;2.03;;
43807;SDS011;29438;50.664;10.098;2024-02-26T01:41:59;6.13;;;1.98;;
43807;SDS011;29438;50.664;10.098;2024-02-26T01:44:26;4.20;;;2.00;;
43807;SDS011;29438;50.664;10.098;2024-02-26T01:46:52;3.60;;;1.60;;
43807;SDS011;29438;50.664;10.098;2024-02-26T01:49:18;4.18;;;1.80;;
43807;SDS011;29438;50.664;10.098;2024-02-26T01:51:44;6.18;;;2.50;;
43807;SDS011;29438;50.664;10.098;2024-02-26T01:54:10;7.50;;;3.45;;
43807;SDS011;29438;50.664;10.098;2024-02-26T01:56:36;6.80;;;3.78;;
43807;SDS011;29438;50.664;10.098;2024-02-26T01:59:03;6.22;;;3.08;;
43807;SDS011;29438;50.664;10.098;2024-02-26T02:01:30;7.78;;;3.08;;
43807;SDS011;29438;50.664;10.098;2024-02-26T02:03:57;5.15;;;2.45;;
43807;SDS011;29438;50.664;10.098;2024-02-26T02:06:24;5.63;;;2.60;;
43807;SDS011;29438;50.664;10.098;2024-02-26T02:08:49;5.07;;;2.05;;
43807;SDS011;29438;50.664;10.098;2024-02-26T02:11:16;3.88;;;1.90;;
43807;SDS011;29438;50.664;10.098;2024-02-26T02:13:42;5.15;;;2.40;;
43807;SDS011;29438;50.664;10.098;2024-02-26T02:16:07;4.43;;;1.80;;
43807;SDS011;29438;50.664;10.098;2024-02-26T02:18:33;4.55;;;1.83;;
43807;SDS011;29438;50.664;10.098;2024-02-26T02:21:02;3.63;;;1.70;;
43807;SDS011;29438;50.664;10.098;2024-02-26T02:23:28;4.07;;;1.75;;
43807;SDS011;29438;50.664;10.098;2024-02-26T02:25:53;4.60;;;1.60;;
43807;SDS011;29438;50.664;10.098;2024-02-26T02:28:21;3.75;;;1.55;;
43807;SDS011;29438;50.664;10.098;2024-02-26T02:30:47;2.70;;;1.10;;
43807;SDS011;29438;50.664;10.098;2024-02-26T02:33:14;3.53;;;1.25;;
43807;SDS011;29438;50.664;10.098;2024-02-26T02:35:40;4.00;;;1.40;;
43807;SDS011;29438;50.664;10.098;2024-02-26T02:38:06;2.45;;;1.10;;
43807;SDS011;29438;50.664;10.098;2024-02-26T02:40:31;4.55;;;1.75;;
43807;SDS011;29438;50.664;10.098;2024-02-26T02:42:57;3.90;;;1.80;;
43807;SDS011;29438;50.664;10.098;2024-02-26T02:45:22;6.30;;;2.00;;
43807;SDS011;29438;50.664;10.098;2024-02-26T02:47:48;4.75;;;1.52;;
43807;SDS011;29438;50.664;10.098;2024-02-26T02:50:13;3.40;;;1.52;;
43807;SDS011;29438;50.664;10.098;2024-02-26T02:52:39;5.53;;;1.77;;
43807;SDS011;29438;50.664;10.098;2024-02-26T02:55:04;4.82;;;1.73;;
43807;SDS011;29438;50.664;10.098;2024-02-26T02:57:30;4.07;;;1.80;;
43807;SDS011;29438;50.664;10.098;2024-02-26T02:59:57;4.50;;;1.83;;
43807;SDS011;29438;50.664;10.098;2024-02-26T03:02:22;3.10;;;1.30;;
43807;SDS011;29438;50.664;10.098;2024-02-26T03:04:49;3.60;;;1.50;;
43807;SDS011;29438;50.664;10.098;2024-02-26T03:07:15;3.28;;;1.48;;
43807;SDS011;29438;50.664;10.098;2024-02-26T03:09:41;3.60;;;1.48;;
43807;SDS011;29438;50.664;10.098;2024-02-26T03:12:06;3.40;;;1.10;;
43807;SDS011;29438;50.664;10.098;2024-02-26T03:14:32;2.88;;;1.17;;
43807;SDS011;29438;50.664;10.098;2024-02-26T03:16:57;4.32;;;1.25;;
43807;SDS011;29438;50.664;10.098;2024-02-26T03:19:23;3.05;;;0.90;;
43807;SDS011;29438;50.664;10.098;2024-02-26T03:21:49;2.88;;;1.23;;
43807;SDS011;29438;50.664;10.098;2024-02-26T03:24:14;3.42;;;1.15;;
43807;SDS011;29438;50.664;10.098;2024-02-26T03:26:40;2.55;;;1.15;;
43807;SDS011;29438;50.664;10.098;2024-02-26T03:29:05;3.00;;;1.40;;
43807;SDS011;29438;50.664;10.098;2024-02-26T03:31:31;4.07;;;1.25;;
43807;SDS011;29438;50.664;10.098;2024-02-26T03:33:56;2.72;;;1.08;;
43807;SDS011;29438;50.664;10.098;2024-02-26T03:36:22;4.00;;;1.42;;
43807;SDS011;29438;50.664;10.098;2024-02-26T03:38:48;3.05;;;1.40;;
43807;SDS011;29438;50.664;10.098;2024-02-26T03:41:13;3.35;;;1.50;;
43807;SDS011;29438;50.664;10.098;2024-02-26T03:43:39;2.35;;;1.17;;
43807;SDS011;29438;50.664;10.098;2024-02-26T03:46:08;3.67;;;1.50;;
43807;SDS011;29438;50.664;10.098;2024-02-26T03:48:38;2.88;;;1.40;;
43807;SDS011;29438;50.664;10.098;2024-02-26T03:51:05;4.22;;;1.50;;
43807;SDS011;29438;50.664;10.098;2024-02-26T03:53:30;3.50;;;1.38;;
43807;SDS011;29438;50.664;10.098;2024-02-26T03:55:56;3.42;;;1.20;;
43807;SDS011;29438;50.664;10.098;2024-02-26T03:58:21;3.83;;;1.27;;
43807;SDS011;29438;50.664;10.098;2024-02-26T04:00:47;2.95;;;1.40;;
43807;SDS011;29438;50.664;10.098;2024-02-26T04:03:13;2.72;;;1.40;;
43807;SDS011;29438;50.664;10.098;2024-02-26T04:05:38;3.55;;;1.58;;
43807;SDS011;29438;50.664;10.098;2024-02-26T04:08:04;5.82;;;1.60;;
43807;SDS011;29438;50.664;10.098;2024-02-26T04:10:32;4.22;;;1.52;;
43807;SDS011;29438;50.664;10.098;2024-02-26T04:12:59;3.42;;;1.50;;
43807;SDS011;29438;50.664;10.098;2024-02-26T04:15:25;2.92;;;1.52;;
43807;SDS011;29438;50.664;10.098;2024-02-26T04:17:50;2.85;;;1.17;;
43807;SDS011;29438;50.664;10.098;2024-02-26T04:20:16;3.42;;;1.60;;
43807;SDS011;29438;50.664;10.098;2024-02-26T04:22:42;4.97;;;1.73;;
43807;SDS011;29438;50.664;10.098;2024-02-26T04:25:07;3.47;;;1.45;;
43807;SDS011;29438;50.664;10.098;2024-02-26T04:27:33;3.63;;;1.75;;
43807;SDS011;29438;50.664;10.098;2024-02-26T04:29:59;3.65;;;1.95;;
43807;SDS011;29438;50.664;10.098;2024-02-26T04:32:24;4.60;;;1.55;;
43807;SDS011;29438;50.664;10.098;2024-02-26T04:34:50;5.57;;;1.80;;
43807;SDS011;29438;50.664;10.098;2024-02-26T04:37:15;4.22;;;1.65;;
43807;SDS011;29438;50.664;10.098;2024-02-26T04:39:41;3.08;;;1.55;;
43807;SDS011;29438;50.664;10.098;2024-02-26T04:42:06;4.93;;;1.70;;
43807;SDS011;29438;50.664;10.098;2024-02-26T04:44:32;3.70;;;2.08;;
43807;SDS011;29438;50.664;10.098;2024-02-26T04:46:58;5.30;;;2.65;;
43807;SDS011;29438;50.664;10.098;2024-02-26T04:49:23;7.38;;;2.42;;
43807;SDS011;29438;50.664;10.098;2024-02-26T04:51:49;4.63;;;2.45;;
43807;SDS011;29438;50.664;10.098;2024-02-26T04:54:14;5.13;;;2.10;;
43807;SDS011;29438;50.664;10.098;2024-02-26T04:56:40;3.30;;;1.80;;
43807;SDS011;29438;50.664;10.098;2024-02-26T04:59:05;3.78;;;1.90;;
43807;SDS011;29438;50.664;10.098;2024-02-26T05:01:31;4.18;;;1.98;;
43807;SDS011;29438;50.664;10.098;2024-02-26T05:03:56;4.65;;;1.77;;
43807;SDS011;29438;50.664;10.098;2024-02-26T05:06:22;3.50;;;1.70;;
43807;SDS011;29438;50.664;10.098;2024-02-26T05:08:47;4.70;;;1.98;;
43807;SDS011;29438;50.664;10.098;2024-02-26T05:11:13;4.82;;;2.08;;
43807;SDS011;29438;50.664;10.098;2024-02-26T05:13:38;3.72;;;1.70;;
43807;SDS011;29438;50.664;10.098;2024-02-26T05:16:04;3.92;;;1.60;;
43807;SDS011;29438;50.664;10.098;2024-02-26T05:18:30;4.60;;;1.65;;
43807;SDS011;29438;50.664;10.098;2024-02-26T05:20:55;3.47;;;1.50;;
43807;SDS011;29438;50.664;10.098;2024-02-26T05:23:21;3.80;;;2.00;;
43807;SDS011;29438;50.664;10.098;2024-02-26T05:25:46;5.78;;;1.70;;
43807;SDS011;29438;50.664;10.098;2024-02-26T05:28:13;4.18;;;1.80;;
43807;SDS011;29438;50.664;10.098;2024-02-26T05:30:40;3.90;;;1.70;;
43807;SDS011;29438;50.664;10.098;2024-02-26T05:33:06;3.88;;;1.67;;
43807;SDS011;29438;50.664;10.098;2024-02-26T05:35:32;4.82;;;1.88;;
43807;SDS011;29438;50.664;10.098;2024-02-26T05:37:57;4.57;;;1.65;;
43807;SDS011;29438;50.664;10.098;2024-02-26T05:40:23;4.10;;;1.70;;
43807;SDS011;29438;50.664;10.098;2024-02-26T05:42:48;5.85;;;1.90;;
43807;SDS011;29438;50.664;10.098;2024-02-26T05:45:14;2.95;;;1.40;;
43807;SDS011;29438;50.664;10.098;2024-02-26T05:47:40;4.65;;;1.70;;
43807;SDS011;29438;50.664;10.098;2024-02-26T05:50:08;3.35;;;1.30;;
43807;SDS011;29438;50.664;10.098;2024-02-26T05:52:35;5.03;;;1.40;;
43807;SDS011;29438;50.664;10.098;2024-02-26T05:55:05;3.85;;;1.30;;
43807;SDS011;29438;50.664;10.098;2024-02-26T05:57:31;4.05;;;1.35;;
43807;SDS011;29438;50.664;10.098;2024-02-26T05:59:56;4.22;;;1.58;;
43807;SDS011;29438;50.664;10.098;2024-02-26T06:02:25;4.03;;;1.70;;
43807;SDS011;29438;50.664;10.098;2024-02-26T06:04:51;4.85;;;1.60;;
43807;SDS011;29438;50.664;10.098;2024-02-26T06:07:16;4.07;;;1.60;;
43807;SDS011;29438;50.664;10.098;2024-02-26T06:09:42;5.10;;;1.73;;
43807;SDS011;29438;50.664;10.098;2024-02-26T06:12:07;3.58;;;1.50;;
43807;SDS011;29438;50.664;10.098;2024-02-26T06:14:33;4.28;;;1.75;;
43807;SDS011;29438;50.664;10.098;2024-02-26T06:16:59;5.13;;;1.63;;
43807;SDS011;29438;50.664;10.098;2024-02-26T06:19:24;4.25;;;1.60;;
43807;SDS011;29438;50.664;10.098;2024-02-26T06:21:50;4.53;;;1.50;;
43807;SDS011;29438;50.664;10.098;2024-02-26T06:24:16;4.47;;;1.45;;
43807;SDS011;29438;50.664;10.098;2024-02-26T06:26:41;3.53;;;1.50;;
43807;SDS011;29438;50.664;10.098;2024-02-26T06:29:07;3.72;;;1.38;;
43807;SDS011;29438;50.664;10.098;2024-02-26T06:31:32;6.13;;;2.20;;
43807;SDS011;29438;50.664;10.098;2024-02-26T06:33:58;4.20;;;1.90;;
43807;SDS011;29438;50.664;10.098;2024-02-26T06:36:23;5.65;;;2.20;;
43807;SDS011;29438;50.664;10.098;2024-02-26T06:38:49;4.85;;;1.60;;
43807;SDS011;29438;50.664;10.098;2024-02-26T06:41:14;4.38;;;1.98;;
43807;SDS011;29438;50.664;10.098;2024-02-26T06:43:40;4.63;;;1.90;;
43807;SDS011;29438;50.664;10.098;2024-02-26T06:46:06;5.55;;;1.98;;
43807;SDS011;29438;50.664;10.098;2024-02-26T06:48:32;5.80;;;2.00;;
43807;SDS011;29438;50.664;10.098;2024-02-26T06:50:57;5.95;;;2.20;;
43807;SDS011;29438;50.664;10.098;2024-02-26T06:53:23;4.35;;;2.35;;
43807;SDS011;29438;50.664;10.098;2024-02-26T06:55:48;7.65;;;3.05;;
43807;SDS011;29438;50.664;10.098;2024-02-26T06:58:15;4.20;;;2.15;;
43807;SDS011;29438;50.664;10.098;2024-02-26T07:00:40;5.57;;;2.65;;
43807;SDS011;29438;50.664;10.098;2024-02-26T07:03:06;7.63;;;2.50;;
43807;SDS011;29438;50.664;10.098;2024-02-26T07:05:32;5.07;;;2.20;;
43807;SDS011;29438;50.664;10.098;2024-02-26T07:07:57;7.20;;;2.40;;
43807;SDS011;29438;50.664;10.098;2024-02-26T07:10:23;4.15;;;1.85;;
43807;SDS011;29438;50.664;10.098;2024-02-26T07:12:48;4.18;;;1.90;;
43807;SDS011;29438;50.664;10.098;2024-02-26T07:15:14;4.55;;;1.80;;
43807;SDS011;29438;50.664;10.098;2024-02-26T07:17:39;5.47;;;1.90;;
43807;SDS011;29438;50.664;10.098;2024-02-26T07:20:07;5.38;;;2.13;;
43807;SDS011;29438;50.664;10.098;2024-02-26T07:22:34;4.47;;;2.00;;
43807;SDS011;29438;50.664;10.098;2024-02-26T07:24:59;3.17;;;1.40;;
43807;SDS011;29438;50.664;10.098;2024-02-26T07:27:24;4.40;;;1.80;;
43807;SDS011;29438;50.664;10.098;2024-02-26T07:29:50;3.55;;;1.77;;
43807;SDS011;29438;50.664;10.098;2024-02-26T07:32:15;4.30;;;1.80;;
43807;SDS011;29438;50.664;10.098;2024-02-26T07:34:41;5.05;;;1.80;;
43807;SDS011;29438;50.664;10.098;2024-02-26T07:37:07;4.68;;;1.80;;
43807;SDS011;29438;50.664;10.098;2024-02-26T07:39:33;5.35;;;2.10;;
43807;SDS011;29438;50.664;10.098;2024-02-26T07:41:58;4.32;;;2.05;;
43807;SDS011;29438;50.664;10.098;2024-02-26T07:44:24;4.57;;;1.92;;
43807;SDS011;29438;50.664;10.098;2024-02-26T07:46:50;4.68;;;1.52;;
43807;SDS011;29438;50.664;10.098;2024-02-26T07:49:15;4.85;;;1.98;;
43807;SDS011;29438;50.664;10.098;2024-02-26T07:51:40;4.70;;;2.15;;
43807;SDS011;29438;50.664;10.098;2024-02-26T07:54:06;4.97;;;2.00;;
43807;SDS011;29438;50.664;10.098;2024-02-26T07:56:32;4.75;;;2.10;;
43807;SDS011;29438;50.664;10.098;2024-02-26T07:58:58;5.40;;;2.40;;
43807;SDS011;29438;50.664;10.098;2024-02-26T08:01:23;3.92;;;2.00;;
43807;SDS011;29438;50.664;10.098;2024-02-26T08:03:50;3.92;;;2.00;;
43807;SDS011;29438;50.664;10.098;2024-02-26T08:06:16;5.60;;;2.20;;
43807;SDS011;29438;50.664;10.098;2024-02-26T08:08:42;4.70;;;1.83;;
43807;SDS011;29438;50.664;10.098;2024-02-26T08:11:08;5.68;;;1.92;;
43807;SDS011;29438;50.664;10.098;2024-02-26T08:13:34;5.10;;;2.10;;
43807;SDS011;29438;50.664;10.098;2024-02-26T08:16:00;3.47;;;1.88;;
43807;SDS011;29438;50.664;10.098;2024-02-26T08:18:26;4.68;;;1.98;;
43807;SDS011;29438;50.664;10.098;2024-02-26T08:20:51;4.10;;;1.85;;
43807;SDS011;29438;50.664;10.098;2024-02-26T08:23:17;4.57;;;1.77;;
43807;SDS011;29438;50.664;10.098;2024-02-26T08:25:43;4.93;;;2.03;;
43807;SDS011;29438;50.664;10.098;2024-02-26T08:28:08;4.40;;;1.98;;
43807;SDS011;29438;50.664;10.098;2024-02-26T08:30:36;4.65;;;1.77;;
43807;SDS011;29438;50.664;10.098;2024-02-26T08:33:01;5.70;;;2.08;;
43807;SDS011;29438;50.664;10.098;2024-02-26T08:35:27;5.07;;;2.10;;
43807;SDS011;29438;50.664;10.098;2024-02-26T08:37:52;3.42;;;1.40;;
43807;SDS011;29438;50.664;10.098;2024-02-26T08:40:18;2.95;;;1.27;;
43807;SDS011;29438;50.664;10.098;2024-02-26T08:42:44;3.35;;;1.40;;
43807;SDS011;29438;50.664;10.098;2024-02-26T08:45:10;4.20;;;1.88;;
43807;SDS011;29438;50.664;10.098;2024-02-26T08:47:37;3.45;;;1.70;;
43807;SDS011;29438;50.664;10.098;2024-02-26T08:50:03;4.35;;;1.83;;
43807;SDS011;29438;50.664;10.098;2024-02-26T08:52:29;4.20;;;1.60;;
43807;SDS011;29438;50.664;10.098;2024-02-26T08:54:55;3.35;;;1.40;;
43807;SDS011;29438;50.664;10.098;2024-02-26T08:57:20;3.13;;;1.55;;
43807;SDS011;29438;50.664;10.098;2024-02-26T08:59:46;3.85;;;1.40;;
43807;SDS011;29438;50.664;10.098;2024-02-26T09:02:11;4.05;;;1.60;;
43807;SDS011;29438;50.664;10.098;2024-02-26T09:04:37;3.65;;;1.40;;
43807;SDS011;29438;50.664;10.098;2024-02-26T09:07:02;3.25;;;1.60;;
43807;SDS011;29438;50.664;10.098;2024-02-26T09:09:28;4.10;;;1.50;;
43807;SDS011;29438;50.664;10.098;2024-02-26T09:11:53;3.35;;;1.60;;
43807;SDS011;29438;50.664;10.098;2024-02-26T09:14:20;3.17;;;1.52;;
43807;SDS011;29438;50.664;10.098;2024-02-26T09:16:46;3.10;;;1.50;;
43807;SDS011;29438;50.664;10.098;2024-02-26T09:19:13;3.28;;;1.60;;
43807;SDS011;29438;50.664;10.098;2024-02-26T09:21:45;3.35;;;1.70;;
43807;SDS011;29438;50.664;10.098;2024-02-26T09:24:11;3.72;;;1.73;;
43807;SDS011;29438;50.664;10.098;2024-02-26T09:26:37;3.05;;;1.70;;
43807;SDS011;29438;50.664;10.098;2024-02-26T09:29:03;2.97;;;1.42;;
43807;SDS011;29438;50.664;10.098;2024-02-26T09:31:33;2.95;;;1.70;;
43807;SDS011;29438;50.664;10.098;2024-02-26T09:33:59;3.58;;;1.75;;
43807;SDS011;29438;50.664;10.098;2024-02-26T09:36:24;2.92;;;1.60;;
43807;SDS011;29438;50.664;10.098;2024-02-26T09:38:50;4.50;;;1.73;;
43807;SDS011;29438;50.664;10.098;2024-02-26T09:41:15;4.30;;;1.85;;
43807;SDS011;29438;50.664;10.098;2024-02-26T09:43:42;3.90;;;1.60;;
43807;SDS011;29438;50.664;10.098;2024-02-26T09:46:10;4.22;;;1.77;;
43807;SDS011;29438;50.664;10.098;2024-02-26T09:48:35;3.13;;;1.50;;
43807;SDS011;29438;50.664;10.098;2024-02-26T09:51:02;2.55;;;1.40;;
43807;SDS011;29438;50.664;10.098;2024-02-26T09:53:29;4.47;;;1.58;;
43807;SDS011;29438;50.664;10.098;2024-02-26T09:55:57;5.43;;;2.38;;
43807;SDS011;29438;50.664;10.098;2024-02-26T09:58:23;4.15;;;1.85;;
43807;SDS011;29438;50.664;10.098;2024-02-26T10:00:51;4.55;;;2.00;;
43807;SDS011;29438;50.664;10.098;2024-02-26T10:03:21;4.80;;;1.63;;
43807;SDS011;29438;50.664;10.098;2024-02-26T10:05:50;4.07;;;2.00;;
43807;SDS011;29438;50.664;10.098;2024-02-26T10:08:16;4.20;;;1.80;;
43807;SDS011;29438;50.664;10.098;2024-02-26T10:10:43;3.20;;;1.40;;
43807;SDS011;29438;50.664;10.098;2024-02-26T10:13:09;5.20;;;2.50;;
43807;SDS011;29438;50.664;10.098;2024-02-26T10:15:36;6.07;;;1.90;;
43807;SDS011;29438;50.664;10.098;2024-02-26T10:18:05;5.13;;;1.98;;
43807;SDS011;29438;50.664;10.098;2024-02-26T10:20:31;4.32;;;1.88;;
43807;SDS011;29438;50.664;10.098;2024-02-26T10:22:57;4.75;;;2.08;;
43807;SDS011;29438;50.664;10.098;2024-02-26T10:25:23;4.78;;;2.08;;
43807;SDS011;29438;50.664;10.098;2024-02-26T10:27:48;4.18;;;1.80;;
43807;SDS011;29438;50.664;10.098;2024-02-26T10:30:17;4.68;;;1.85;;
43807;SDS011;29438;50.664;10.098;2024-02-26T10:32:44;3.63;;;1.67;;
43807;SDS011;29438;50.664;10.098;2024-02-26T10:35:11;3.35;;;1.55;;
43807;SDS011;29438;50.664;10.098;2024-02-26T10:37:37;3.88;;;1.70;;
43807;SDS011;29438;50.664;10.098;2024-02-26T10:40:04;3.50;;;1.52;;
43807;SDS011;29438;50.664;10.098;2024-02-26T10:42:30;3.78;;;1.80;;
43807;SDS011;29438;50.664;10.098;2024-02-26T10:44:57;3.45;;;1.60;;
43807;SDS011;29438;50.664;10.098;2024-02-26T10:47:23;4.15;;;1.80;;
43807;SDS011;29438;50.664;10.098;2024-02-26T10:49:49;4.25;;;2.08;;
43807;SDS011;29438;50.664;10.098;2024-02-26T10:52:15;5.10;;;2.35;;
43807;SDS011;29438;50.664;10.098;2024-02-26T10:54:44;3.88;;;2.03;;
43807;SDS011;29438;50.664;10.098;2024-02-26T10:57:12;3.92;;;1.90;;
43807;SDS011;29438;50.664;10.098;2024-02-26T10:59:39;3.17;;;1.73;;
43807;SDS011;29438;50.664;10.098;2024-02-26T11:02:07;4.38;;;1.90;;
43807;SDS011;29438;50.664;10.098;2024-02-26T11:04:34;3.70;;;1.67;;
43807;SDS011;29438;50.664;10.098;2024-02-26T11:07:01;4.85;;;2.10;;
43807;SDS011;29438;50.664;10.098;2024-02-26T11:09:29;3.78;;;1.70;;
43807;SDS011;29438;50.664;10.098;2024-02-26T11:11:56;4.35;;;1.95;;
43807;SDS011;29438;50.664;10.098;2024-02-26T11:14:24;4.82;;;2.20;;
43807;SDS011;29438;50.664;10.098;2024-02-26T11:16:50;4.97;;;2.20;;
43807;SDS011;29438;50.664;10.098;2024-02-26T11:19:16;4.75;;;1.85;;
43807;SDS011;29438;50.664;10.098;2024-02-26T11:21:42;4.10;;;2.13;;
43807;SDS011;29438;50.664;10.098;2024-02-26T11:24:10;4.43;;;2.08;;
43807;SDS011;29438;50.664;10.098;2024-02-26T11:26:39;4.35;;;2.40;;
43807;SDS011;29438;50.664;10.098;2024-02-26T11:29:14;3.75;;;1.95;;
43807;SDS011;29438;50.664;10.098;2024-02-26T11:31:43;4.93;;;1.95;;
43807;SDS011;29438;50.664;10.098;2024-02-26T11:34:09;3.45;;;1.90;;
43807;SDS011;29438;50.664;10.098;2024-02-26T11:36:36;5.70;;;2.40;;
43807;SDS011;29438;50.664;10.098;2024-02-26T11:39:03;4.40;;;2.40;;
43807;SDS011;29438;50.664;10.098;2024-02-26T11:41:29;4.35;;;2.20;;
43807;SDS011;29438;50.664;10.098;2024-02-26T11:43:59;10.25;;;4.57;;
43807;SDS011;29438;50.664;10.098;2024-02-26T11:46:26;7.60;;;3.63;;
43807;SDS011;29438;50.664;10.098;2024-02-26T11:49:29;5.25;;;2.70;;
43807;SDS011;29438;50.664;10.098;2024-02-26T11:51:52;5.75;;;2.50;;
43807;SDS011;29438;50.664;10.098;2024-02-26T11:54:38;6.50;;;2.80;;
43807;SDS011;29438;50.664;10.098;2024-02-26T11:57:04;7.13;;;3.67;;
43807;SDS011;29438;50.664;10.098;2024-02-26T11:59:38;4.63;;;2.50;;
43807;SDS011;29438;50.664;10.098;2024-02-26T12:02:05;5.78;;;2.33;;
43807;SDS011;29438;50.664;10.098;2024-02-26T12:04:32;5.25;;;2.50;;
43807;SDS011;29438;50.664;10.098;2024-02-26T12:07:00;5.53;;;2.30;;
43807;SDS011;29438;50.664;10.098;2024-02-26T12:09:35;5.38;;;2.42;;
43807;SDS011;29438;50.664;10.098;2024-02-26T12:12:05;5.25;;;2.67;;
43807;SDS011;29438;50.664;10.098;2024-02-26T12:14:50;4.72;;;2.50;;
43807;SDS011;29438;50.664;10.098;2024-02-26T12:17:20;5.72;;;2.70;;
43807;SDS011;29438;50.664;10.098;2024-02-26T12:19:46;5.03;;;2.42;;
43807;SDS011;29438;50.664;10.098;2024-02-26T12:22:12;3.90;;;2.10;;
43807;SDS011;29438;50.664;10.098;2024-02-26T12:24:39;4.90;;;2.30;;
43807;SDS011;29438;50.664;10.098;2024-02-26T12:27:04;3.85;;;1.90;;
43807;SDS011;29438;50.664;10.098;2024-02-26T12:29:31;4.47;;;1.98;;
43807;SDS011;29438;50.664;10.098;2024-02-26T12:31:56;4.82;;;2.25;;
43807;SDS011;29438;50.664;10.098;2024-02-26T12:34:22;4.25;;;2.28;;
43807;SDS011;29438;50.664;10.098;2024-02-26T12:36:48;3.85;;;2.05;;
43807;SDS011;29438;50.664;10.098;2024-02-26T12:39:14;5.15;;;2.13;;
43807;SDS011;29438;50.664;10.098;2024-02-26T12:41:39;4.05;;;1.88;;
43807;SDS011;29438;50.664;10.098;2024-02-26T12:44:07;4.15;;;1.83;;
43807;SDS011;29438;50.664;10.098;2024-02-26T12:46:33;3.67;;;2.00;;
43807;SDS011;29438;50.664;10.098;2024-02-26T12:48:58;4.20;;;2.08;;
43807;SDS011;29438;50.664;10.098;2024-02-26T12:51:27;3.70;;;2.00;;
43807;SDS011;29438;50.664;10.098;2024-02-26T12:53:54;4.15;;;2.08;;
43807;SDS011;29438;50.664;10.098;2024-02-26T12:56:21;3.53;;;1.73;;
43807;SDS011;29438;50.664;10.098;2024-02-26T12:58:48;4.53;;;2.20;;
43807;SDS011;29438;50.664;10.098;2024-02-26T13:01:16;4.82;;;2.20;;
43807;SDS011;29438;50.664;10.098;2024-02-26T13:03:45;3.90;;;1.90;;
43807;SDS011;29438;50.664;10.098;2024-02-26T13:06:11;2.70;;;1.55;;
43807;SDS011;29438;50.664;10.098;2024-02-26T13:08:37;4.15;;;1.77;;
43807;SDS011;29438;50.664;10.098;2024-02-26T13:11:02;3.80;;;1.92;;
43807;SDS011;29438;50.664;10.098;2024-02-26T13:13:28;3.95;;;2.20;;
43807;SDS011;29438;50.664;10.098;2024-02-26T13:16:04;3.92;;;2.08;;
43807;SDS011;29438;50.664;10.098;2024-02-26T13:18:34;4.35;;;2.08;;
43807;SDS011;29438;50.664;10.098;2024-02-26T13:21:09;3.95;;;1.90;;
43807;SDS011;29438;50.664;10.098;2024-02-26T13:23:39;3.60;;;2.00;;
43807;SDS011;29438;50.664;10.098;2024-02-26T13:26:05;3.63;;;1.95;;
43807;SDS011;29438;50.664;10.098;2024-02-26T13:28:31;4.28;;;1.98;;
43807;SDS011;29438;50.664;10.098;2024-02-26T13:30:57;3.45;;;1.75;;
43807;SDS011;29438;50.664;10.098;2024-02-26T13:33:24;4.57;;;1.73;;
43807;SDS011;29438;50.664;10.098;2024-02-26T13:35:51;5.28;;;1.77;;
43807;SDS011;29438;50.664;10.098;2024-02-26T13:38:17;3.20;;;1.27;;
43807;SDS011;29438;50.664;10.098;2024-02-26T13:40:43;3.35;;;1.73;;
43807;SDS011;29438;50.664;10.098;2024-02-26T13:43:09;2.78;;;1.48;;
43807;SDS011;29438;50.664;10.098;2024-02-26T13:45:35;3.55;;;1.65;;
43807;SDS011;29438;50.664;10.098;2024-02-26T13:48:02;5.47;;;1.50;;
43807;SDS011;29438;50.664;10.098;2024-02-26T13:50:30;4.38;;;1.60;;
43807;SDS011;29438;50.664;10.098;2024-02-26T13:52:55;3.30;;;1.35;;
43807;SDS011;29438;50.664;10.098;2024-02-26T13:55:22;4.55;;;1.85;;
43807;SDS011;29438;50.664;10.098;2024-02-26T13:57:50;3.42;;;1.40;;
43807;SDS011;29438;50.664;10.098;2024-02-26T14:00:18;4.05;;;1.73;;
43807;SDS011;29438;50.664;10.098;2024-02-26T14:02:44;3.22;;;1.48;;
43807;SDS011;29438;50.664;10.098;2024-02-26T14:05:10;3.80;;;1.50;;
43807;SDS011;29438;50.664;10.098;2024-02-26T14:07:36;4.97;;;1.67;;
43807;SDS011;29438;50.664;10.098;2024-02-26T14:10:02;3.70;;;1.55;;
43807;SDS011;29438;50.664;10.098;2024-02-26T14:12:27;4.20;;;1.30;;
43807;SDS011;29438;50.664;10.098;2024-02-26T14:14:53;3.15;;;1.55;;
43807;SDS011;29438;50.664;10.098;2024-02-26T14:17:20;3.17;;;1.67;;
43807;SDS011;29438;50.664;10.098;2024-02-26T14:19:47;2.75;;;1.50;;
43807;SDS011;29438;50.664;10.098;2024-02-26T14:22:13;3.15;;;1.20;;
43807;SDS011;29438;50.664;10.098;2024-02-26T14:24:40;3.58;;;1.42;;
43807;SDS011;29438;50.664;10.098;2024-02-26T14:27:07;3.47;;;1.42;;
43807;SDS011;29438;50.664;10.098;2024-02-26T14:29:33;3.67;;;1.20;;